Time;durP1;ratioP1;P1;durP2;ratioP2;P2;SDS_P1;SDS_P2;PMS_P1;PMS_P2;Temp;Humidity;BMP_temperature;BMP_pressure;BME280_temperature;BME280_humidity;BME280_pressure;Samples;Min_cycle;Max_cycle;Signal;HPM_P1;HPM_P2
2022/03/08 00:01:17;;;;;;;18.50;7.85;;;;;;;0.73;100.00;96589.19;5083670;28;20048;-57
2022/03/08 00:03:44;;;;;;;21.00;7.97;;;;;;;1.81;100.00;96774.59;5081926;28;20147;-59
2022/03/08 00:06:11;;;;;;;15.00;7.45;;;;;;;1.85;100.00;96767.41;5083810;28;20056;-60
2022/03/08 00:08:42;;;;;;;17.58;7.25;;;;;;;1.94;100.00;96766.28;5082458;28;20056;-59
2022/03/08 00:11:10;;;;;;;14.52;6.43;;;;;;;1.41;100.00;96697.53;5083696;28;20052;-58
2022/03/08 00:13:37;;;;;;;15.75;6.82;;;;;;;1.75;100.00;96743.13;5082267;28;20504;-56
2022/03/08 00:16:04;;;;;;;17.40;6.97;;;;;;;1.55;100.00;96730.91;5083996;28;20056;-56
2022/03/08 00:18:32;;;;;;;14.52;6.45;;;;;;;2.03;100.00;96774.44;5083556;28;20071;-60
2022/03/08 00:20:59;;;;;;;20.15;7.35;;;;;;;2.03;100.00;96761.59;5083845;28;20066;-57
2022/03/08 00:23:26;;;;;;;15.30;7.15;;;;;;;2.05;100.00;96767.53;5082991;28;20054;-59
2022/03/08 00:25:53;;;;;;;17.25;7.20;;;;;;;2.17;100.00;96769.59;5083728;28;20058;-60
2022/03/08 00:28:20;;;;;;;17.70;6.95;;;;;;;2.18;100.00;96754.84;5083908;28;20048;-60
2022/03/08 00:30:47;;;;;;;15.98;7.05;;;;;;;2.15;100.00;96766.41;5083571;28;20051;-56
2022/03/08 00:33:13;;;;;;;14.15;6.45;;;;;;;2.18;100.00;96754.84;5083380;28;20052;-60
2022/03/08 00:35:40;;;;;;;16.17;6.72;;;;;;;2.28;100.00;96759.94;5082357;28;20509;-60
2022/03/08 00:38:07;;;;;;;14.98;6.35;;;;;;;2.21;100.00;96743.25;5063094;28;20048;-58
2022/03/08 00:40:33;;;;;;;15.75;6.63;;;;;;;2.34;100.00;96753.22;5063245;28;20491;-60
2022/03/08 00:43:00;;;;;;;29.38;10.70;;;;;;;1.37;100.00;96601.88;5063302;28;20048;-57
2022/03/08 00:45:27;;;;;;;25.98;11.48;;;;;;;1.62;100.00;96637.63;5063035;28;20561;-60
2022/03/08 00:47:55;;;;;;;21.95;8.73;;;;;;;2.29;100.00;96745.19;5062994;28;20051;-61
2022/03/08 00:50:24;;;;;;;15.75;7.38;;;;;;;2.27;100.00;96736.50;5062993;28;20053;-60
2022/03/08 00:52:52;;;;;;;16.33;7.93;;;;;;;2.27;100.00;96736.50;5061283;28;20048;-57
2022/03/08 00:55:19;;;;;;;22.92;9.82;;;;;;;1.25;100.00;96584.53;5063058;28;20135;-58
2022/03/08 00:57:48;;;;;;;16.10;7.63;;;;;;;1.41;100.00;96594.66;5062816;28;20056;-57
2022/03/08 01:00:17;;;;;;;17.25;6.97;;;;;;;2.28;100.00;96740.81;5063222;28;20055;-60
2022/03/08 01:02:44;;;;;;;15.25;6.47;;;;;;;2.17;100.00;96714.97;5062903;28;20074;-61
2022/03/08 01:05:12;;;;;;;16.58;6.93;;;;;;;2.35;100.00;96732.94;5063388;28;20131;-60
2022/03/08 01:07:39;;;;;;;19.48;8.35;;;;;;;2.36;100.00;96745.47;5062979;28;20048;-61
2022/03/08 01:10:09;;;;;;;20.60;8.23;;;;;;;2.50;100.00;96744.16;5062778;28;20067;-60
2022/03/08 01:12:36;;;;;;;18.70;7.70;;;;;;;2.29;100.00;96724.09;5063357;28;20060;-57
2022/03/08 01:15:04;;;;;;;19.83;7.60;;;;;;;2.43;100.00;96751.25;5066280;28;20467;-61
2022/03/08 01:17:31;;;;;;;18.13;7.05;;;;;;;2.41;100.00;96745.28;5065229;28;20078;-58
2022/03/08 01:19:58;;;;;;;18.15;8.70;;;;;;;2.44;100.00;96741.91;5066670;28;20056;-60
2022/03/08 01:22:25;;;;;;;19.40;7.22;;;;;;;2.36;100.00;96745.47;5065928;28;20048;-60
2022/03/08 01:24:53;;;;;;;16.17;7.20;;;;;;;1.77;100.00;96705.41;5066700;28;20052;-57
2022/03/08 01:27:20;;;;;;;15.40;7.15;;;;;;;2.15;100.00;96745.34;5066399;28;20067;-58
2022/03/08 01:29:46;;;;;;;17.92;7.20;;;;;;;2.05;100.00;96729.31;5066305;28;20056;-60
2022/03/08 01:32:13;;;;;;;15.60;7.22;;;;;;;2.02;100.00;96731.88;5065969;28;20345;-57
2022/03/08 01:34:40;;;;;;;18.95;6.78;;;;;;;1.47;100.00;96653.38;5066387;28;20487;-60
2022/03/08 01:37:06;;;;;;;16.98;6.82;;;;;;;1.65;100.00;96694.31;5077321;28;20475;-57
2022/03/08 01:39:34;;;;;;;18.25;7.53;;;;;;;2.03;100.00;96741.66;5086571;28;20499;-60
2022/03/08 01:42:11;;;;;;;15.73;6.95;;;;;;;1.88;100.00;96712.13;5084973;28;20458;-57
2022/03/08 01:44:41;;;;;;;20.08;7.38;;;;;;;1.97;100.00;96735.59;5086578;28;20056;-57
2022/03/08 01:47:13;;;;;;;22.08;8.10;;;;;;;1.45;100.00;96633.00;5086290;28;20080;-60
2022/03/08 01:49:40;;;;;;;22.02;8.30;;;;;;;2.01;100.00;96736.53;5086040;28;20052;-61
2022/03/08 01:52:07;;;;;;;23.85;8.70;;;;;;;1.59;100.00;96655.47;5085775;28;20463;-61
2022/03/08 01:54:34;;;;;;;21.00;8.10;;;;;;;2.06;100.00;96752.75;5086115;28;20428;-57
2022/03/08 01:57:02;;;;;;;19.33;7.43;;;;;;;2.09;100.00;96740.38;5085830;28;20055;-61
2022/03/08 01:59:29;;;;;;;20.20;8.65;;;;;;;2.13;100.00;96750.34;5084352;28;20048;-60
2022/03/08 02:01:56;;;;;;;21.67;8.60;;;;;;;2.07;100.00;96729.75;5086012;28;20059;-60
2022/03/08 02:04:24;;;;;;;25.02;10.23;;;;;;;2.22;100.00;96747.59;5085952;28;20066;-58
2022/03/08 02:06:51;;;;;;;34.78;12.02;;;;;;;2.24;100.00;96759.00;5085771;28;20538;-61
2022/03/08 02:09:18;;;;;;;38.15;13.57;;;;;;;2.28;100.00;96754.47;5085857;28;20430;-60
2022/03/08 02:11:44;;;;;;;25.63;10.07;;;;;;;1.70;100.00;96688.69;5086186;28;20063;-58
2022/03/08 02:14:11;;;;;;;23.25;9.25;;;;;;;2.00;100.00;96732.19;5086129;28;20044;-60
2022/03/08 02:16:38;;;;;;;19.13;8.02;;;;;;;2.19;100.00;96767.34;5085883;28;20075;-58
2022/03/08 02:19:05;;;;;;;21.02;8.13;;;;;;;2.29;100.00;96764.31;5084060;28;20405;-57
2022/03/08 02:21:35;;;;;;;23.48;7.75;;;;;;;1.87;100.00;96705.88;5085360;28;20058;-60
2022/03/08 02:24:01;;;;;;;20.75;8.02;;;;;;;2.21;100.00;96759.66;5085667;28;20055;-61
2022/03/08 02:26:28;;;;;;;21.33;7.95;;;;;;;2.17;100.00;96753.22;5083465;28;20054;-61
2022/03/08 02:28:55;;;;;;;20.95;8.20;;;;;;;2.17;100.00;96754.03;5084024;28;20048;-60
2022/03/08 02:31:22;;;;;;;21.25;8.63;;;;;;;2.19;100.00;96759.16;5085151;28;20060;-59
2022/03/08 02:33:49;;;;;;;27.95;9.73;;;;;;;1.97;100.00;96742.97;5084933;28;20514;-58
2022/03/08 02:36:15;;;;;;;25.02;9.25;;;;;;;2.10;100.00;96763.84;5079925;28;20551;-58
2022/03/08 02:38:42;;;;;;;32.25;11.48;;;;;;;2.12;100.00;96756.13;5065114;28;20052;-57
2022/03/08 02:41:09;;;;;;;28.92;10.48;;;;;;;2.15;100.00;96760.94;5064686;28;20051;-58
2022/03/08 02:43:36;;;;;;;26.60;9.65;;;;;;;2.14;100.00;96764.78;5065015;28;20052;-61
2022/03/08 02:46:03;;;;;;;29.35;11.30;;;;;;;2.15;100.00;96755.50;5063405;28;20048;-57
2022/03/08 02:48:30;;;;;;;28.35;11.82;;;;;;;1.80;100.00;96704.75;5072776;27;20057;-57
2022/03/08 02:50:57;;;;;;;34.38;12.60;;;;;;;2.15;100.00;96766.41;5063302;28;20239;-61
2022/03/08 02:53:24;;;;;;;28.77;11.55;;;;;;;2.11;100.00;96749.03;5063199;28;20048;-57
2022/03/08 02:55:51;;;;;;;25.73;10.57;;;;;;;1.62;100.00;96719.53;5064810;28;20048;-58
2022/03/08 02:58:18;;;;;;;25.63;10.82;;;;;;;1.93;100.00;96769.31;5064297;28;20052;-61
2022/03/08 03:00:45;;;;;;;29.50;11.98;;;;;;;0.63;100.00;96551.34;5065056;28;20048;-58
2022/03/08 03:03:12;;;;;;;30.75;11.52;;;;;;;1.96;100.00;96764.00;5063788;28;20110;-57
2022/03/08 03:05:39;;;;;;;20.50;9.10;;;;;;;2.09;100.00;96767.69;5064507;28;20060;-61
2022/03/08 03:08:07;;;;;;;23.08;9.07;;;;;;;2.07;100.00;96768.00;5064422;28;20048;-61
2022/03/08 03:10:34;;;;;;;33.72;13.35;;;;;;;1.98;100.00;96744.56;5062666;28;20519;-58
2022/03/08 03:13:00;;;;;;;28.27;9.52;;;;;;;2.11;100.00;96765.44;5064331;28;20044;-57
2022/03/08 03:15:29;;;;;;;24.90;9.57;;;;;;;1.74;100.00;96711.50;5064096;28;20044;-57
2022/03/08 03:17:56;;;;;;;25.73;11.05;;;;;;;2.02;100.00;96764.66;5064523;28;20472;-57
2022/03/08 03:20:25;;;;;;;24.45;10.93;;;;;;;1.83;100.00;96780.56;5064413;28;20052;-58
2022/03/08 03:22:52;;;;;;;26.83;10.23;;;;;;;1.82;100.00;96768.03;5064632;28;20265;-61
2022/03/08 03:25:19;;;;;;;24.58;9.02;;;;;;;1.78;100.00;96761.59;5064281;28;20414;-61
2022/03/08 03:27:46;;;;;;;26.30;9.32;;;;;;;1.85;100.00;96767.41;5064215;28;20075;-57
2022/03/08 03:30:16;;;;;;;23.25;8.60;;;;;;;1.47;100.00;96735.25;5064421;28;20056;-60
2022/03/08 03:32:43;;;;;;;26.15;8.00;;;;;;;0.90;100.00;96681.88;5064268;28;20075;-58
2022/03/08 03:35:10;;;;;;;23.58;9.13;;;;;;;1.33;100.00;96750.97;5063832;28;20070;-61
2022/03/08 03:37:38;;;;;;;26.50;8.98;;;;;;;1.54;100.00;96778.44;5079628;28;20052;-57
2022/03/08 03:40:07;;;;;;;24.58;8.98;;;;;;;1.39;100.00;96759.81;5084818;28;20055;-56
2022/03/08 03:42:33;;;;;;;23.60;8.13;;;;;;;1.52;100.00;96754.19;5084101;28;20056;-60
2022/03/08 03:45:00;;;;;;;22.25;8.18;;;;;;;1.11;100.00;96699.25;5082450;28;20135;-57
2022/03/08 03:47:27;;;;;;;24.77;8.18;;;;;;;1.66;100.00;96775.09;5083573;28;20609;-57
2022/03/08 03:49:54;;;;;;;24.30;9.10;;;;;;;1.19;100.00;96695.75;5083726;28;20055;-56
2022/03/08 03:52:21;;;;;;;18.75;7.53;;;;;;;1.64;100.00;96758.22;5083617;28;20051;-59
2022/03/08 03:54:48;;;;;;;32.50;8.68;;;;;;;1.23;100.00;96691.25;5082572;28;20314;-60
2022/03/08 03:57:14;;;;;;;22.40;8.45;;;;;;;1.43;100.00;96767.03;5084483;28;20055;-59
2022/03/08 03:59:41;;;;;;;23.75;8.50;;;;;;;0.88;100.00;96697.78;5084186;28;20059;-56
2022/03/08 04:02:08;;;;;;;24.00;8.65;;;;;;;1.60;100.00;96762.72;5083621;28;20448;-56
2022/03/08 04:04:35;;;;;;;21.75;8.23;;;;;;;1.62;100.00;96769.47;5083744;28;20552;-60
2022/03/08 04:07:01;;;;;;;21.42;8.15;;;;;;;1.58;100.00;96763.03;5082211;28;20698;-60
2022/03/08 04:09:28;;;;;;;26.17;8.15;;;;;;;1.52;100.00;96759.66;5082130;28;20067;-59
2022/03/08 04:11:55;;;;;;;23.52;8.50;;;;;;;1.42;100.00;96762.69;5083746;28;20052;-56
2022/03/08 04:14:22;;;;;;;23.63;8.10;;;;;;;0.78;100.00;96687.16;5084119;28;20055;-59
2022/03/08 04:16:49;;;;;;;22.75;8.20;;;;;;;1.35;100.00;96770.56;5082137;28;20051;-57
2022/03/08 04:19:20;;;;;;;22.05;7.82;;;;;;;1.01;100.00;96683.19;5083489;28;20103;-60
2022/03/08 04:21:47;;;;;;;29.13;8.35;;;;;;;1.13;100.00;96765.19;5083522;28;20267;-56
2022/03/08 04:24:14;;;;;;;25.90;7.65;;;;;;;1.34;100.00;96751.78;5083629;28;20055;-60
2022/03/08 04:26:41;;;;;;;19.38;7.47;;;;;;;1.36;100.00;96763.97;5082091;28;20056;-57
2022/03/08 04:29:08;;;;;;;27.33;9.13;;;;;;;1.37;100.00;96746.50;5083280;28;20143;-57
2022/03/08 04:31:35;;;;;;;21.65;7.32;;;;;;;1.58;100.00;96773.16;5083612;28;20067;-60
2022/03/08 04:34:01;;;;;;;21.92;7.65;;;;;;;1.47;100.00;96768.00;5083354;28;20044;-60
2022/03/08 04:36:28;;;;;;;58.38;20.60;;;;;;;1.47;100.00;96759.81;5075358;28;20056;-57
2022/03/08 04:38:55;;;;;;;26.95;11.32;;;;;;;1.68;100.00;96759.16;5063032;28;20495;-56
2022/03/08 04:41:22;;;;;;;21.98;9.38;;;;;;;1.71;100.00;96762.06;5063021;28;20500;-60
2022/03/08 04:43:49;;;;;;;46.17;15.30;;;;;;;1.75;100.00;96757.59;5062877;28;20110;-59
2022/03/08 04:46:15;;;;;;;35.10;12.65;;;;;;;1.66;100.00;96769.63;5062740;28;20147;-59
2022/03/08 04:48:42;;;;;;;27.08;11.38;;;;;;;1.60;100.00;96771.69;5065287;28;20076;-59
2022/03/08 04:51:09;;;;;;;30.52;12.07;;;;;;;1.65;100.00;96766.09;5066889;28;20149;-59
2022/03/08 04:53:36;;;;;;;23.65;9.65;;;;;;;1.76;100.00;96767.38;5065668;28;20127;-60
2022/03/08 04:56:03;;;;;;;23.30;10.43;;;;;;;1.84;100.00;96763.03;5066802;28;20049;-57
2022/03/08 04:58:30;;;;;;;31.10;13.05;;;;;;;1.91;100.00;96766.09;5066277;28;20049;-60
2022/03/08 05:00:57;;;;;;;50.15;21.55;;;;;;;1.81;100.00;96744.56;5066603;28;20056;-56
2022/03/08 05:03:24;;;;;;;25.27;10.45;;;;;;;1.92;100.00;96768.50;5066587;28;20056;-60
2022/03/08 05:05:51;;;;;;;35.63;14.90;;;;;;;1.94;100.00;96766.28;5066756;28;20616;-56
2022/03/08 05:08:17;;;;;;;52.00;20.77;;;;;;;1.76;100.00;96742.00;5065570;28;20056;-60
2022/03/08 05:10:44;;;;;;;60.42;26.60;;;;;;;2.04;100.00;96770.59;5066559;28;20048;-60
2022/03/08 05:13:11;;;;;;;52.00;23.08;;;;;;;2.11;100.00;96787.28;5066827;28;20044;-60
2022/03/08 05:15:38;;;;;;;42.45;16.30;;;;;;;1.59;100.00;96720.97;5066680;28;20053;-58
2022/03/08 05:18:04;;;;;;;42.95;17.67;;;;;;;1.83;100.00;96750.53;5066341;28;20767;-61
2022/03/08 05:20:31;;;;;;;64.45;24.08;;;;;;;2.06;100.00;96787.44;5065121;28;20052;-58
2022/03/08 05:23:00;;;;;;;55.28;23.80;;;;;;;2.08;100.00;96782.47;5066692;28;20060;-60
2022/03/08 05:25:28;;;;;;;51.83;23.60;;;;;;;2.17;100.00;96786.81;5066380;28;20071;-57
2022/03/08 05:27:55;;;;;;;52.85;21.02;;;;;;;2.26;100.00;96795.00;5066225;28;20087;-61
2022/03/08 05:30:21;;;;;;;36.85;15.25;;;;;;;2.23;100.00;96784.72;5066197;28;20040;-61
2022/03/08 05:32:48;;;;;;;65.03;27.67;;;;;;;2.27;100.00;96799.34;5066367;28;20435;-57
2022/03/08 05:35:15;;;;;;;40.72;17.08;;;;;;;2.35;100.00;96790.31;5066531;28;20052;-57
2022/03/08 05:37:42;;;;;;;31.20;14.10;;;;;;;2.39;100.00;96796.72;5080773;28;20047;-60
2022/03/08 05:40:09;;;;;;;29.15;11.30;;;;;;;2.40;100.00;96798.34;5086516;28;20146;-60
2022/03/08 05:42:39;;;;;;;31.23;13.40;;;;;;;2.11;100.00;96801.75;5085244;28;20128;-59
2022/03/08 05:45:09;;;;;;;41.95;17.15;;;;;;;1.92;100.00;96805.94;5084323;28;20055;-60
2022/03/08 05:47:37;;;;;;;44.75;17.60;;;;;;;1.70;100.00;96727.72;5084361;28;20545;-60
2022/03/08 05:50:05;;;;;;;32.40;15.10;;;;;;;2.13;100.00;96801.44;5085660;28;20056;-61
2022/03/08 05:52:32;;;;;;;31.08;12.75;;;;;;;2.13;100.00;96809.63;5078437;28;20127;-57
2022/03/08 05:54:59;;;;;;;25.00;10.85;;;;;;;2.14;100.00;96809.31;5065744;28;20409;-59
2022/03/08 05:57:25;;;;;;;25.90;10.15;;;;;;;2.16;100.00;96811.72;5065865;28;20067;-60
2022/03/08 05:59:52;;;;;;;24.95;9.77;;;;;;;2.18;100.00;96814.94;5064743;28;20443;-60
2022/03/08 06:02:21;;;;;;;26.83;10.25;;;;;;;2.19;100.00;96816.53;5065626;28;20059;-60
2022/03/08 06:04:48;;;;;;;24.50;9.82;;;;;;;1.34;100.00;96705.38;5065422;28;20430;-57
2022/03/08 06:07:15;;;;;;;23.73;8.88;;;;;;;1.15;100.00;96672.97;5065914;28;20054;-59
2022/03/08 06:09:42;;;;;;;22.80;9.77;;;;;;;2.10;100.00;96807.53;5064551;28;20075;-59
2022/03/08 06:12:09;;;;;;;24.00;10.50;;;;;;;2.35;100.00;96825.84;5065667;28;20060;-57
2022/03/08 06:14:36;;;;;;;26.25;9.57;;;;;;;2.39;100.00;96829.53;5065637;28;20048;-57
2022/03/08 06:17:03;;;;;;;23.77;9.77;;;;;;;2.48;100.00;96830.34;5065224;28;20055;-58
2022/03/08 06:19:30;;;;;;;21.45;9.85;;;;;;;2.52;100.00;96836.75;5065404;28;20058;-57
2022/03/08 06:21:58;;;;;;;39.42;13.80;;;;;;;2.23;100.00;96831.16;5065172;28;20056;-59
2022/03/08 06:24:24;;;;;;;28.35;9.55;;;;;;;1.66;100.00;96786.00;5065276;28;20060;-56
2022/03/08 06:26:51;;;;;;;23.38;9.13;;;;;;;1.77;100.00;96836.44;5065274;28;20052;-56
2022/03/08 06:29:18;;;;;;;25.23;10.75;;;;;;;1.77;100.00;96817.34;5065026;28;20048;-56
2022/03/08 06:31:44;;;;;;;25.42;10.60;;;;;;;2.12;100.00;96818.97;5065081;28;20438;-59
2022/03/08 06:34:11;;;;;;;27.92;10.88;;;;;;;2.00;100.00;96797.75;5064881;28;20055;-59
2022/03/08 06:36:41;;;;;;;26.20;10.32;;;;;;;2.14;100.00;96816.69;5070316;28;20066;-60
2022/03/08 06:39:08;;;;;;;21.17;9.68;;;;;;;2.12;100.00;96821.69;5085293;28;20060;-60
2022/03/08 06:41:39;;;;;;;30.88;10.27;;;;;;;2.05;100.00;96840.47;5084925;28;20051;-60
2022/03/08 06:44:06;;;;;;;28.05;9.77;;;;;;;2.20;100.00;96823.59;5084355;28;20499;-56
2022/03/08 06:46:33;;;;;;;20.40;8.80;;;;;;;1.76;100.00;96725.63;5083211;28;21312;-60
2022/03/08 06:48:59;;;;;;;20.10;7.72;;;;;;;2.61;100.00;96851.22;5084781;28;20491;-57
2022/03/08 06:51:26;;;;;;;20.85;7.75;;;;;;;2.37;100.00;96856.41;5083910;28;20075;-60
2022/03/08 06:53:53;;;;;;;21.95;8.43;;;;;;;1.57;100.00;96805.09;5083567;28;20048;-59
2022/03/08 06:56:20;;;;;;;20.17;8.07;;;;;;;1.78;100.00;96806.09;5083238;28;20056;-59
2022/03/08 06:58:46;;;;;;;21.90;7.30;;;;;;;1.76;100.00;96862.13;5084728;28;20082;-60
2022/03/08 07:01:14;;;;;;;21.00;7.93;;;;;;;2.00;100.00;96852.38;5084453;28;20131;-60
2022/03/08 07:03:41;;;;;;;15.13;4.93;;;;;;;0.92;100.00;96750.53;5068714;28;20045;-61
2022/03/08 07:06:09;;;;;;;8.65;4.32;;;;;;;1.44;100.00;96853.22;5054995;28;20048;-55
2022/03/08 07:08:37;;;;;;;15.98;5.68;;;;;;;1.29;100.00;96836.47;5063892;28;20060;-56
2022/03/08 07:11:04;;;;;;;12.90;5.32;;;;;;;1.45;100.00;96835.72;5062091;28;20064;-61
2022/03/08 07:13:32;;;;;;;14.43;5.50;;;;;;;0.97;100.00;96753.13;5062289;28;20047;-58
2022/03/08 07:15:59;;;;;;;8.98;4.32;;;;;;;1.38;100.00;96851.75;5050735;28;20048;-60
2022/03/08 07:18:26;;;;;;;12.20;4.90;;;;;;;1.31;100.00;96856.84;5054214;28;20541;-59
2022/03/08 07:20:53;;;;;;;14.77;5.43;;;;;;;0.99;100.00;96799.97;5054175;28;20044;-60
2022/03/08 07:23:21;;;;;;;19.90;5.85;;;;;;;1.24;100.00;96831.16;5059319;28;20044;-62
2022/03/08 07:25:48;;;;;;;20.50;6.53;;;;;;;1.55;100.00;96851.81;5063754;28;20059;-61
2022/03/08 07:28:15;;;;;;;17.02;5.65;;;;;;;1.38;100.00;96812.75;5061509;28;20050;-61
2022/03/08 07:30:58;;;;;;;26.08;5.97;;;;;;;1.05;100.00;96765.97;5062981;28;20052;-56
2022/03/08 07:33:25;;;;;;;19.05;6.07;;;;;;;-0.46;100.00;96485.41;5062909;28;20499;-58
2022/03/08 07:35:52;;;;;;;34.58;11.25;;;;;;;1.98;100.00;96842.88;5062187;28;20055;-60
2022/03/08 07:38:19;;;;;;;77.47;19.42;;;;;;;2.23;100.00;96844.84;5061842;28;20044;-62
2022/03/08 07:40:46;;;;;;;72.97;16.73;;;;;;;2.10;100.00;96845.78;5063675;28;20434;-61
2022/03/08 07:43:13;;;;;;;65.07;15.73;;;;;;;2.22;100.00;96848.69;5062183;28;20048;-61
2022/03/08 07:45:40;;;;;;;51.13;12.55;;;;;;;2.07;100.00;96843.69;5063632;28;20060;-61
2022/03/08 07:48:07;;;;;;;63.88;15.55;;;;;;;2.29;100.00;96843.53;5063767;28;20040;-61
2022/03/08 07:50:35;;;;;;;45.72;14.82;;;;;;;2.67;100.00;96845.25;5062155;28;20048;-55
2022/03/08 07:53:05;;;;;;;122.22;30.98;;;;;;;2.50;99.22;96795.28;5063385;28;20055;-56
2022/03/08 07:55:32;;;;;;;65.88;22.00;;;;;;;3.47;99.24;96830.66;5063963;28;20067;-61
2022/03/08 07:58:00;;;;;;;38.33;15.63;;;;;;;3.96;94.12;96838.09;5063566;28;20079;-61
2022/03/08 08:00:30;;;;;;;14.63;7.32;;;;;;;4.15;91.64;96830.22;5061847;28;20049;-61
2022/03/08 08:02:59;;;;;;;15.43;7.78;;;;;;;4.57;89.39;96837.28;5063147;28;20098;-58
2022/03/08 08:05:26;;;;;;;61.28;20.38;;;;;;;4.87;86.93;96834.41;5061452;28;20050;-56
2022/03/08 08:07:53;;;;;;;442.67;37.65;;;;;;;5.15;88.68;96829.91;5061983;28;20259;-62
2022/03/08 08:10:19;;;;;;;21.35;10.20;;;;;;;5.64;87.39;96831.56;5062935;28;20443;-63
2022/03/08 08:12:46;;;;;;;26.13;10.73;;;;;;;5.73;81.51;96818.47;5061403;28;20057;-57
2022/03/08 08:15:13;;;;;;;23.02;10.88;;;;;;;5.95;80.41;96820.78;5063026;28;20048;-58
2022/03/08 08:17:39;;;;;;;15.25;7.68;;;;;;;5.67;78.82;96745.69;5061984;28;20060;-57
2022/03/08 08:20:08;;;;;;;13.18;6.68;;;;;;;6.46;78.68;96817.22;5063299;28;20053;-60
2022/03/08 08:22:35;;;;;;;12.20;5.55;;;;;;;5.86;75.54;96682.69;5060461;28;20048;-62
2022/03/08 08:25:02;;;;;;;13.63;6.63;;;;;;;7.16;73.43;96810.91;5062470;28;20056;-64
2022/03/08 08:27:29;;;;;;;8.02;4.90;;;;;;;6.15;72.59;96819.81;5062155;28;20071;-58
2022/03/08 08:29:56;;;;;;;10.70;4.53;;;;;;;4.51;78.82;96822.19;5059948;28;20514;-61
2022/03/08 08:32:23;;;;;;;9.60;5.07;;;;;;;4.82;78.62;96818.94;5062345;28;20056;-61
2022/03/08 08:34:49;;;;;;;8.95;5.25;;;;;;;4.78;79.31;96803.50;5063001;28;20479;-60
2022/03/08 08:37:16;;;;;;;9.07;5.20;;;;;;;3.96;80.33;96794.25;5062781;28;20056;-55
2022/03/08 08:39:43;;;;;;;10.68;5.65;;;;;;;4.60;80.47;96811.91;5061953;28;20499;-54
2022/03/08 08:42:09;;;;;;;8.85;5.07;;;;;;;4.11;80.30;96758.03;5062446;28;20052;-65
2022/03/08 08:44:43;;;;;;;14.80;6.45;;;;;;;4.71;82.43;96809.53;5046900;28;20049;-62
2022/03/08 08:47:10;;;;;;;14.50;6.68;;;;;;;5.62;81.29;96784.38;5059888;28;20080;-59
2022/03/08 08:49:37;;;;;;;13.73;9.18;;;;;;;6.64;76.52;96815.00;5062857;28;20509;-63
2022/03/08 08:52:04;;;;;;;13.98;6.80;;;;;;;6.60;72.26;96770.03;5062616;28;20554;-57
2022/03/08 08:54:31;;;;;;;9.73;5.82;;;;;;;6.83;71.04;96813.16;5060774;28;20139;-58
2022/03/08 08:56:58;;;;;;;11.23;5.07;;;;;;;7.39;70.30;96814.66;5061782;28;20060;-67
2022/03/08 08:59:25;;;;;;;10.27;5.05;;;;;;;7.23;69.74;96819.38;5063082;28;20041;-59
2022/03/08 09:01:52;;;;;;;18.52;8.38;;;;;;;7.36;70.48;96809.88;5062525;28;20044;-58
2022/03/08 09:04:19;;;;;;;22.02;9.55;;;;;;;7.74;69.20;96807.25;5062343;28;20081;-55
2022/03/08 09:06:45;;;;;;;17.60;7.75;;;;;;;7.96;68.84;96810.50;5062757;28;20143;-65
2022/03/08 09:09:12;;;;;;;18.77;8.05;;;;;;;7.89;67.40;96804.84;5062225;28;20058;-61
2022/03/08 09:11:39;;;;;;;13.25;5.88;;;;;;;6.29;68.35;96789.22;5060612;28;20064;-63
2022/03/08 09:14:06;;;;;;;10.32;5.72;;;;;;;5.57;74.95;96803.84;5060733;28;20050;-56
2022/03/08 09:16:32;;;;;;;11.00;6.47;;;;;;;4.98;75.43;96715.63;5060567;28;20068;-59
2022/03/08 09:18:59;;;;;;;11.63;6.22;;;;;;;6.16;73.39;96799.44;5060523;28;20049;-60
2022/03/08 09:21:26;;;;;;;12.65;6.13;;;;;;;6.87;71.61;96800.31;5061266;28;20057;-60
2022/03/08 09:23:53;;;;;;;11.55;4.85;;;;;;;6.08;70.93;96737.94;5062311;28;20056;-54
2022/03/08 09:26:19;;;;;;;10.70;5.57;;;;;;;5.90;69.94;96766.03;5062211;28;20059;-63
2022/03/08 09:28:46;;;;;;;11.57;6.18;;;;;;;6.73;71.39;96720.09;5062335;28;20048;-61
2022/03/08 09:31:13;;;;;;;8.82;4.72;;;;;;;7.82;65.94;96805.47;5062308;28;20099;-55
2022/03/08 09:33:41;;;;;;;12.82;6.88;;;;;;;8.19;66.56;96792.91;5062300;28;20135;-61
2022/03/08 09:36:09;;;;;;;14.63;8.27;;;;;;;8.24;66.93;96794.63;5064458;28;20056;-56
2022/03/08 09:38:37;;;;;;;15.05;7.38;;;;;;;7.66;69.64;96801.94;5065415;28;20055;-55
2022/03/08 09:41:04;;;;;;;10.32;5.07;;;;;;;7.86;65.91;96805.53;5064086;28;20159;-61
2022/03/08 09:43:34;;;;;;;38.58;22.00;;;;;;;8.24;61.40;96802.91;5065724;28;20048;-56
2022/03/08 09:46:01;;;;;;;183.57;35.03;;;;;;;8.57;63.95;96781.13;5065475;28;20143;-55
2022/03/08 09:48:28;;;;;;;27.70;10.25;;;;;;;9.17;64.89;96794.13;5065915;28;20427;-55
2022/03/08 09:50:59;;;;;;;9.65;5.53;;;;;;;8.99;61.48;96804.06;5065665;28;20049;-61
2022/03/08 09:53:29;;;;;;;13.02;7.20;;;;;;;8.52;64.90;96807.06;5065220;28;20052;-57
2022/03/08 09:56:00;;;;;;;10.90;5.65;;;;;;;8.55;64.08;96756.66;5066065;28;20051;-62
2022/03/08 09:58:31;;;;;;;9.60;5.43;;;;;;;8.64;62.47;96806.13;5065467;28;20083;-56
2022/03/08 10:01:01;;;;;;;12.73;6.35;;;;;;;7.92;58.99;96729.69;5063854;28;20507;-61
2022/03/08 10:03:43;;;;;;;15.45;7.15;;;;;;;8.28;63.50;96773.44;5064717;28;20056;-61
2022/03/08 10:06:11;;;;;;;24.77;14.18;;;;;;;8.44;64.05;96793.50;5064919;28;20613;-64
2022/03/08 10:08:38;;;;;;;16.15;8.75;;;;;;;8.75;64.08;96771.25;5064946;28;20136;-62
2022/03/08 10:11:09;;;;;;;11.75;6.88;;;;;;;8.77;63.30;96791.81;5064334;28;20045;-56
2022/03/08 10:13:49;;;;;;;12.02;6.90;;;;;;;8.61;64.26;96793.06;5052152;28;20166;-58
2022/03/08 10:16:16;;;;;;;12.55;7.30;;;;;;;8.67;64.55;96788.84;5058150;28;20399;-61
2022/03/08 10:18:48;;;;;;;12.25;6.88;;;;;;;8.60;63.93;96788.72;5064383;28;20059;-55
2022/03/08 10:21:30;;;;;;;12.82;6.68;;;;;;;9.01;63.88;96768.56;5064543;28;20084;-56
2022/03/08 10:24:01;;;;;;;10.75;5.75;;;;;;;9.36;58.69;96785.78;5064616;28;20052;-61
2022/03/08 10:26:27;;;;;;;13.13;7.05;;;;;;;8.58;61.12;96705.44;5064334;28;20056;-64
2022/03/08 10:28:56;;;;;;;11.75;6.90;;;;;;;9.01;61.09;96790.69;5062287;28;20049;-62
2022/03/08 10:31:23;;;;;;;12.63;6.93;;;;;;;8.23;63.57;96732.34;5063271;28;20061;-70
2022/03/08 10:33:50;;;;;;;15.38;8.32;;;;;;;8.46;63.74;96791.16;5064396;28;20040;-62
2022/03/08 10:36:23;;;;;;;13.98;7.75;;;;;;;8.45;63.76;96784.03;5064956;28;20129;-60
2022/03/08 10:39:12;;;;;;;15.70;8.75;;;;;;;8.21;64.70;96789.78;5064205;28;20057;-61
2022/03/08 10:41:47;;;;;;;11.60;6.80;;;;;;;7.55;60.88;96748.53;5064426;28;20053;-61
2022/03/08 10:44:15;;;;;;;13.82;7.07;;;;;;;7.47;65.30;96799.91;5064268;28;20048;-58
2022/03/08 10:46:42;;;;;;;16.60;7.97;;;;;;;7.44;65.00;96816.34;5064133;28;20113;-61
2022/03/08 10:49:13;;;;;;;13.38;6.57;;;;;;;6.89;64.52;96773.19;5064768;28;20056;-62
2022/03/08 10:51:40;;;;;;;17.90;8.15;;;;;;;7.16;66.93;96793.59;5063084;28;20059;-61
2022/03/08 10:54:12;;;;;;;20.02;10.35;;;;;;;6.94;68.17;96794.97;5064875;28;20064;-61
2022/03/08 10:56:44;;;;;;;9.63;5.82;;;;;;;6.87;65.21;96797.56;5064789;28;20442;-61
2022/03/08 10:59:12;;;;;;;26.65;12.73;;;;;;;6.77;65.63;96800.81;5064442;28;20056;-55
2022/03/08 11:01:39;;;;;;;36.70;12.88;;;;;;;6.42;67.25;96777.81;5062376;28;20040;-56
2022/03/08 11:04:16;;;;;;;30.90;12.45;;;;;;;6.39;69.92;96803.25;5063973;28;20045;-59
2022/03/08 11:06:44;;;;;;;20.17;8.60;;;;;;;5.94;69.42;96747.72;5063979;28;20127;-54
2022/03/08 11:09:12;;;;;;;11.25;6.40;;;;;;;6.48;68.27;96808.63;5062890;28;20106;-56
2022/03/08 11:11:39;;;;;;;13.68;6.10;;;;;;;6.44;64.47;96815.97;5064074;28;20060;-59
2022/03/08 11:14:05;;;;;;;12.05;6.93;;;;;;;6.29;64.73;96765.25;5061666;28;20052;-58
2022/03/08 11:16:33;;;;;;;12.90;7.00;;;;;;;6.50;62.57;96807.13;5063348;28;20040;-60
2022/03/08 11:19:00;;;;;;;20.55;9.07;;;;;;;6.56;65.32;96794.69;5061995;28;20052;-56
2022/03/08 11:21:28;;;;;;;12.90;6.60;;;;;;;6.71;61.99;96810.47;5063439;28;20052;-60
2022/03/08 11:23:56;;;;;;;15.93;7.63;;;;;;;6.59;63.54;96801.47;5063852;28;20068;-60
2022/03/08 11:26:23;;;;;;;10.80;6.22;;;;;;;6.37;65.98;96802.78;5063602;28;20079;-58
2022/03/08 11:28:55;;;;;;;16.95;7.38;;;;;;;6.37;67.63;96793.75;5062925;28;20059;-59